Time;durP1;ratioP1;P1;durP2;ratioP2;P2;SDS_P1;SDS_P2;PMS_P1;PMS_P2;Temp;Humidity;BMP_temperature;BMP_pressure;BME280_temperature;BME280_humidity;BME280_pressure;Samples;Min_cycle;Max_cycle;Signal;HPM_P1;HPM_P2
2024/03/07 00:01:26;;;;;;;7.25;5.35;;;;;;;6.36;100.00;100787.75;5060631;28;20114;-74
2024/03/07 00:03:52;;;;;;;4.00;3.80;;;;;;;6.48;100.00;100798.47;5062146;28;20467;-74
2024/03/07 00:06:17;;;;;;;0.40;0.40;;;;;;;6.61;100.00;100825.72;5057695;28;20057;-76
2024/03/07 00:08:43;;;;;;;4.57;4.32;;;;;;;6.54;100.00;100826.41;5062212;28;20094;-75
2024/03/07 00:11:09;;;;;;;0.57;0.57;;;;;;;6.55;100.00;100834.28;5056016;28;20057;-73
2024/03/07 00:13:35;;;;;;;6.43;5.90;;;;;;;6.34;100.00;100825.94;5056811;28;20475;-77
2024/03/07 00:16:01;;;;;;;3.22;3.03;;;;;;;6.21;100.00;100809.16;5057860;28;20047;-74
2024/03/07 00:18:27;;;;;;;0.88;0.88;;;;;;;6.36;100.00;100825.97;5056919;28;20226;-75
2024/03/07 00:20:54;;;;;;;5.63;5.00;;;;;;;6.42;100.00;100821.81;5052764;28;20454;-77
2024/03/07 00:23:20;;;;;;;1.75;1.33;;;;;;;6.27;100.00;100811.00;5062536;28;20049;-75
2024/03/07 00:25:48;;;;;;;4.55;3.20;;;;;;;6.16;100.00;100784.72;5053291;28;20099;-72
2024/03/07 00:28:17;;;;;;;0.82;0.82;;;;;;;6.43;100.00;100809.66;5061500;28;20055;-76
2024/03/07 00:30:46;;;;;;;2.25;2.15;;;;;;;6.26;100.00;100786.69;5073353;28;20710;-78
2024/03/07 00:33:14;;;;;;;1.85;1.75;;;;;;;6.18;100.00;100811.69;5071904;28;20051;-75
2024/03/07 00:35:40;;;;;;;0.40;0.40;;;;;;;6.09;100.00;100772.38;5048182;28;20033;-77
2024/03/07 00:38:05;;;;;;;0.65;0.65;;;;;;;6.11;100.00;100770.66;5053996;28;20051;-75
2024/03/07 00:40:32;;;;;;;2.95;2.85;;;;;;;6.30;100.00;100800.69;5054645;28;20098;-74
2024/03/07 00:42:59;;;;;;;2.25;2.15;;;;;;;5.93;100.00;100745.03;5056420;28;20151;-74
2024/03/07 00:45:25;;;;;;;1.75;1.00;;;;;;;6.28;100.00;100795.41;5069468;28;20578;-77
2024/03/07 00:47:50;;;;;;;0.30;0.30;;;;;;;6.12;100.00;100764.63;5054009;28;20086;-74
2024/03/07 00:50:16;;;;;;;2.50;2.40;;;;;;;6.21;100.00;100801.31;5047493;28;20426;-76
2024/03/07 00:52:42;;;;;;;0.30;0.30;;;;;;;5.97;100.00;100766.84;5049548;28;22502;-77
2024/03/07 00:55:11;;;;;;;0.32;0.32;;;;;;;5.96;100.00;100758.16;5046667;28;20501;-75
2024/03/07 00:57:36;;;;;;;6.13;5.72;;;;;;;6.10;100.00;100788.03;5066343;28;20063;-73
2024/03/07 01:00:03;;;;;;;1.17;0.98;;;;;;;6.15;100.00;100795.09;5046989;28;20021;-78
2024/03/07 01:02:30;;;;;;;7.38;7.07;;;;;;;5.99;100.00;100799.03;5057232;28;20040;-73
2024/03/07 01:04:55;;;;;;;0.95;0.95;;;;;;;6.16;100.00;100791.63;5056048;28;20045;-73
2024/03/07 01:07:23;;;;;;;4.63;4.22;;;;;;;5.83;100.00;100766.47;5053528;28;20053;-74
2024/03/07 01:09:49;;;;;;;1.42;1.33;;;;;;;5.77;100.00;100801.06;5060428;28;20049;-74
2024/03/07 01:12:15;;;;;;;0.40;0.40;;;;;;;5.85;100.00;100806.47;5058160;28;20081;-73
2024/03/07 01:14:41;;;;;;;1.95;1.85;;;;;;;5.82;100.00;100790.78;5060764;28;20032;-74
2024/03/07 01:17:07;;;;;;;4.78;4.57;;;;;;;5.59;100.00;100770.22;5057777;28;20059;-73
2024/03/07 01:19:33;;;;;;;0.40;0.40;;;;;;;5.81;100.00;100809.84;5059011;28;20411;-72
2024/03/07 01:21:59;;;;;;;7.88;7.13;;;;;;;5.34;100.00;100778.22;5063555;28;20056;-73
2024/03/07 01:24:25;;;;;;;1.65;1.55;;;;;;;5.76;100.00;100824.44;5054391;28;20040;-74
2024/03/07 01:26:51;;;;;;;4.18;3.92;;;;;;;5.90;100.00;100813.56;5061780;28;20041;-75
2024/03/07 01:29:17;;;;;;;2.92;2.03;;;;;;;5.69;100.00;100824.31;5055323;28;20044;-72
2024/03/07 01:31:43;;;;;;;1.92;1.83;;;;;;;5.63;100.00;100818.94;5055415;28;20400;-74
2024/03/07 01:34:08;;;;;;;0.75;0.75;;;;;;;5.56;100.00;100810.91;5059472;28;20041;-73
2024/03/07 01:36:34;;;;;;;4.13;3.85;;;;;;;5.71;100.00;100827.84;5055744;28;20056;-76
2024/03/07 01:39:00;;;;;;;3.95;3.75;;;;;;;5.59;100.00;100835.28;5055376;28;20040;-78
2024/03/07 01:41:25;;;;;;;1.23;1.15;;;;;;;5.44;100.00;100803.66;5057430;28;20036;-74
2024/03/07 01:43:51;;;;;;;1.83;1.73;;;;;;;5.58;100.00;100828.34;5062661;28;20488;-74
2024/03/07 01:46:16;;;;;;;2.15;2.05;;;;;;;5.75;100.00;100840.94;5051529;28;20057;-76
2024/03/07 01:48:42;;;;;;;5.95;5.60;;;;;;;5.49;100.00;100833.28;5049666;28;20079;-74
2024/03/07 01:51:08;;;;;;;0.60;0.60;;;;;;;5.33;100.00;100810.28;5042491;28;20037;-75
2024/03/07 01:53:34;;;;;;;0.30;0.30;;;;;;;5.31;100.00;100807.63;5082753;28;20087;-75
2024/03/07 01:56:02;;;;;;;1.95;1.85;;;;;;;5.39;100.00;100833.91;5056224;28;20052;-74
2024/03/07 01:58:30;;;;;;;4.60;4.40;;;;;;;5.31;100.00;100793.75;5056863;28;20052;-72
2024/03/07 02:00:55;;;;;;;1.48;1.38;;;;;;;5.44;100.00;100829.69;5048786;28;20056;-74
2024/03/07 02:03:21;;;;;;;0.82;0.82;;;;;;;5.50;100.00;100833.34;5054970;28;20045;-75
2024/03/07 02:05:47;;;;;;;8.98;6.90;;;;;;;5.38;100.00;100830.38;5058291;28;20025;-75
2024/03/07 02:08:14;;;;;;;2.90;2.80;;;;;;;5.22;100.00;100833.41;5057628;28;20519;-74
2024/03/07 02:10:41;;;;;;;0.77;0.77;;;;;;;5.37;100.00;100827.75;5049194;28;20114;-76
2024/03/07 02:13:07;;;;;;;0.50;0.50;;;;;;;5.31;100.00;100806.75;5051743;28;20094;-74
2024/03/07 02:15:33;;;;;;;2.20;1.83;;;;;;;5.18;100.00;100802.97;5060510;28;20048;-72
2024/03/07 02:17:58;;;;;;;1.00;1.00;;;;;;;5.18;100.00;100841.97;5065469;28;20032;-74
2024/03/07 02:20:24;;;;;;;0.50;0.50;;;;;;;4.99;100.00;100833.63;5055435;28;20136;-73
2024/03/07 02:22:50;;;;;;;1.58;1.48;;;;;;;5.03;100.00;100821.59;5050160;28;20079;-76
2024/03/07 02:25:16;;;;;;;0.73;0.65;;;;;;;5.15;100.00;100831.47;5049728;28;20147;-73
2024/03/07 02:27:42;;;;;;;0.82;0.82;;;;;;;4.92;100.00;100800.50;5044908;28;20194;-76
2024/03/07 02:30:08;;;;;;;0.40;0.40;;;;;;;5.15;100.00;100831.47;5055163;28;20461;-76
2024/03/07 02:32:36;;;;;;;4.57;4.25;;;;;;;5.09;100.00;100819.16;5050915;28;20028;-73
2024/03/07 02:35:03;;;;;;;0.73;0.63;;;;;;;4.94;100.00;100831.72;5050605;28;20052;-74
2024/03/07 02:37:29;;;;;;;0.77;0.75;;;;;;;4.78;100.00;100804.41;5046257;28;20128;-74
2024/03/07 02:39:54;;;;;;;1.27;1.20;;;;;;;4.97;100.00;100805.81;5058728;28;20452;-75
2024/03/07 02:42:20;;;;;;;0.93;0.82;;;;;;;5.00;100.00;100808.50;5061673;28;20137;-74
2024/03/07 02:44:45;;;;;;;0.45;0.45;;;;;;;5.04;100.00;100850.25;5064423;28;20031;-73
2024/03/07 02:47:11;;;;;;;11.48;10.73;;;;;;;5.14;100.00;100859.19;5055635;28;20055;-74
2024/03/07 02:49:37;;;;;;;0.50;0.30;;;;;;;4.75;100.00;100823.41;5054692;28;20045;-73
2024/03/07 02:52:07;;;;;;;0.30;0.30;;;;;;;5.06;100.00;100851.19;5057858;28;20085;-74
2024/03/07 02:54:33;;;;;;;0.50;0.50;;;;;;;5.04;100.00;100850.25;5053964;28;20048;-76
2024/03/07 02:56:58;;;;;;;1.48;1.38;;;;;;;4.94;100.00;100861.22;5057201;28;20032;-73
2024/03/07 02:59:24;;;;;;;12.82;2.50;;;;;;;5.05;100.00;100869.31;5056287;28;20071;-73
2024/03/07 03:01:50;;;;;;;0.20;0.20;;;;;;;4.96;100.00;100859.53;5070021;28;20056;-73
2024/03/07 03:04:16;;;;;;;1.98;1.88;;;;;;;4.97;100.00;100870.84;5051676;28;20072;-74
2024/03/07 03:06:41;;;;;;;2.38;2.17;;;;;;;4.76;100.00;100838.16;5052511;28;20068;-72
2024/03/07 03:09:10;;;;;;;7.22;6.55;;;;;;;4.78;100.00;100836.47;5052956;28;20183;-74
2024/03/07 03:11:37;;;;;;;0.75;0.75;;;;;;;4.81;100.00;100830.47;5047628;28;20025;-73
2024/03/07 03:14:03;;;;;;;0.85;0.85;;;;;;;4.74;100.00;100826.81;5062751;28;20079;-75
2024/03/07 03:16:29;;;;;;;0.73;0.73;;;;;;;3.83;100.00;100827.34;5054107;28;20156;-73
2024/03/07 03:18:55;;;;;;;4.90;4.35;;;;;;;4.59;100.00;100873.13;5063813;28;20465;-72
2024/03/07 03:21:20;;;;;;;0.60;0.60;;;;;;;4.33;100.00;100872.28;5062261;28;20049;-72
2024/03/07 03:23:47;;;;;;;0.50;0.50;;;;;;;4.09;100.00;100882.75;5063447;28;20028;-72
2024/03/07 03:26:13;;;;;;;6.55;6.22;;;;;;;3.74;100.00;100874.63;5053670;28;20056;-74
2024/03/07 03:28:39;;;;;;;1.80;1.75;;;;;;;3.68;100.00;100882.22;5057596;28;20503;-74
2024/03/07 03:31:05;;;;;;;10.88;9.80;;;;;;;3.70;100.00;100896.09;5059878;28;20083;-74
2024/03/07 03:33:32;;;;;;;2.60;2.08;;;;;;;3.77;100.00;100891.19;5051132;28;20140;-74
2024/03/07 03:35:57;;;;;;;11.35;10.63;;;;;;;3.55;100.00;100899.91;5063212;28;20037;-79
2024/03/07 03:38:25;;;;;;;0.60;0.60;;;;;;;3.27;100.00;100864.31;5062894;28;20051;-75
2024/03/07 03:40:51;;;;;;;0.43;0.43;;;;;;;3.35;100.00;100911.28;5060011;28;20647;-73
2024/03/07 03:43:16;;;;;;;29.33;7.00;;;;;;;3.23;100.00;100862.44;5059434;28;20139;-72
2024/03/07 03:45:42;;;;;;;1.88;1.20;;;;;;;3.67;100.00;100890.81;5064852;28;20069;-77
2024/03/07 03:48:07;;;;;;;0.50;0.50;;;;;;;3.53;100.00;100854.88;5059129;28;20366;-75
2024/03/07 03:50:33;;;;;;;11.00;8.90;;;;;;;3.81;100.00;100886.97;5057272;28;20045;-81
2024/03/07 03:52:58;;;;;;;4.57;3.03;;;;;;;3.91;100.00;100893.38;5060103;28;20052;-76
2024/03/07 03:55:24;;;;;;;0.63;0.63;;;;;;;4.17;100.00;100895.16;5054640;28;20041;-73
2024/03/07 03:57:49;;;;;;;2.20;1.65;;;;;;;4.17;100.00;100881.31;5057669;28;20045;-74
2024/03/07 04:00:16;;;;;;;0.85;0.85;;;;;;;3.90;100.00;100856.16;5057128;28;20461;-74
2024/03/07 04:02:49;;;;;;;0.38;0.38;;;;;;;4.20;100.00;100884.88;5069648;28;20020;-74
2024/03/07 04:05:16;;;;;;;2.25;2.15;;;;;;;4.12;100.00;100838.69;5063336;28;20141;-75
2024/03/07 04:07:42;;;;;;;1.75;1.65;;;;;;;4.40;100.00;100869.94;5050933;28;20603;-76
2024/03/07 04:10:09;;;;;;;7.18;6.85;;;;;;;4.37;100.00;100876.75;5055274;28;20077;-75
2024/03/07 04:12:37;;;;;;;3.83;1.40;;;;;;;4.23;100.00;100847.72;5059318;28;20852;-74
2024/03/07 04:15:16;;;;;;;11.10;10.45;;;;;;;4.58;100.00;100872.22;5051436;28;20124;-75
2024/03/07 04:17:42;;;;;;;0.40;0.40;;;;;;;4.42;100.00;100875.19;5063944;28;20154;-76
2024/03/07 04:20:10;;;;;;;0.30;0.30;;;;;;;4.24;100.00;100841.72;5055994;28;20127;-73
2024/03/07 04:22:38;;;;;;;0.73;0.73;;;;;;;4.42;100.00;100849.19;5062653;28;20047;-73
2024/03/07 04:25:06;;;;;;;1.15;1.05;;;;;;;4.49;100.00;100871.06;5058165;28;20504;-74
2024/03/07 04:27:34;;;;;;;5.47;3.55;;;;;;;4.54;100.00;100872.09;5064704;28;20382;-74
2024/03/07 04:30:03;;;;;;;2.83;2.70;;;;;;;4.41;100.00;100853.50;5066674;28;20037;-77
2024/03/07 04:32:28;;;;;;;3.63;3.28;;;;;;;4.32;100.00;100837.63;5068052;28;20055;-72
2024/03/07 04:34:57;;;;;;;0.63;0.63;;;;;;;4.52;100.00;100868.56;5066465;28;20484;-76
2024/03/07 04:37:23;;;;;;;0.90;0.63;;;;;;;4.49;100.00;100873.66;5059205;28;20036;-75
2024/03/07 04:39:50;;;;;;;0.85;0.85;;;;;;;4.38;100.00;100875.94;5060560;28;20080;-74
2024/03/07 04:42:15;;;;;;;0.40;0.40;;;;;;;4.34;100.00;100855.88;5061351;28;20551;-74
2024/03/07 04:44:41;;;;;;;0.73;0.73;;;;;;;4.20;100.00;100887.47;5057879;28;20025;-74
2024/03/07 04:47:07;;;;;;;1.60;1.08;;;;;;;3.75;100.00;100842.66;5056725;28;20214;-74
2024/03/07 04:49:33;;;;;;;0.30;0.30;;;;;;;4.34;100.00;100895.72;5066269;28;20044;-75
2024/03/07 04:52:00;;;;;;;3.90;3.70;;;;;;;4.18;100.00;100855.38;5058228;28;20136;-76
2024/03/07 04:54:27;;;;;;;2.35;2.25;;;;;;;4.34;100.00;100893.13;5064028;28;20131;-74
2024/03/07 04:56:53;;;;;;;2.25;0.68;;;;;;;4.33;100.00;100893.06;5065133;28;20537;-73
2024/03/07 04:59:20;;;;;;;0.82;0.82;;;;;;;4.23;100.00;100853.78;5064327;28;20052;-74
2024/03/07 05:01:47;;;;;;;0.50;0.50;;;;;;;4.32;100.00;100852.34;5051488;28;20052;-76
2024/03/07 05:04:14;;;;;;;1.85;1.75;;;;;;;4.27;100.00;100864.31;5055122;28;20055;-80
2024/03/07 05:06:40;;;;;;;4.82;2.33;;;;;;;4.53;100.00;100892.00;5056974;28;20064;-76
2024/03/07 05:09:07;;;;;;;2.67;2.47;;;;;;;4.47;100.00;100897.00;5055367;28;20052;-73
2024/03/07 05:11:33;;;;;;;4.43;4.05;;;;;;;4.47;100.00;100896.09;5051991;28;20021;-75
2024/03/07 05:14:00;;;;;;;3.28;3.08;;;;;;;4.43;100.00;100869.16;5049444;28;20056;-76
2024/03/07 05:16:30;;;;;;;0.55;0.55;;;;;;;4.27;100.00;100853.91;5050160;28;20167;-76
2024/03/07 05:18:59;;;;;;;11.07;6.22;;;;;;;4.40;100.00;100892.44;5052800;28;20435;-76
2024/03/07 05:23:57;;;;;;;1.17;1.15;;;;;;;3.87;100.00;100891.53;5052689;28;20115;-81
2024/03/07 05:26:23;;;;;;;2.83;2.63;;;;;;;4.14;100.00;100865.59;5056233;28;20562;-75
2024/03/07 05:28:49;;;;;;;5.78;2.92;;;;;;;4.37;100.00;100901.00;5060467;28;20151;-76
2024/03/07 05:31:18;;;;;;;1.58;1.48;;;;;;;4.24;100.00;100901.44;5057247;28;20659;-73
2024/03/07 05:33:46;;;;;;;1.30;1.20;;;;;;;4.32;100.00;100879.19;5048848;28;21026;-75
2024/03/07 05:36:14;;;;;;;1.95;1.85;;;;;;;4.47;100.00;100909.09;5047463;28;20543;-74
2024/03/07 05:38:43;;;;;;;2.47;2.38;;;;;;;4.48;100.00;100913.47;5048805;28;20029;-75
2024/03/07 05:41:12;;;;;;;0.73;0.73;;;;;;;4.56;100.00;100902.47;5047750;28;20566;-77
2024/03/07 05:43:39;;;;;;;1.75;1.00;;;;;;;4.50;100.00;100871.13;5056888;28;20415;-76
2024/03/07 05:46:06;;;;;;;0.65;0.65;;;;;;;4.12;100.00;100912.31;5056638;28;20056;-77
2024/03/07 05:48:33;;;;;;;3.65;3.38;;;;;;;4.52;100.00;100912.72;5060642;28;20105;-77
2024/03/07 05:50:59;;;;;;;5.45;4.65;;;;;;;4.62;100.00;100918.28;5061136;28;20040;-79
2024/03/07 05:53:25;;;;;;;1.63;1.52;;;;;;;3.86;100.00;100926.94;5057789;28;20080;-73
2024/03/07 05:55:50;;;;;;;1.85;1.75;;;;;;;3.45;100.00;100930.66;5064127;28;20098;-74
2024/03/07 05:58:16;;;;;;;1.98;1.85;;;;;;;3.67;100.00;100893.41;5059801;28;20106;-80
2024/03/07 06:00:53;;;;;;;0.40;0.40;;;;;;;3.77;100.00;100944.81;5057140;28;20141;-78
2024/03/07 06:03:23;;;;;;;4.45;4.15;;;;;;;3.90;100.00;100908.06;5054387;28;20580;-75
2024/03/07 06:05:50;;;;;;;8.52;8.18;;;;;;;3.58;100.00;100944.16;5052855;28;20075;-75
2024/03/07 06:08:17;;;;;;;1.95;1.85;;;;;;;3.65;100.00;100895.06;5058666;28;20059;-79
2024/03/07 06:10:43;;;;;;;2.90;2.80;;;;;;;4.10;100.00;100950.31;5062947;28;20049;-79
2024/03/07 06:13:11;;;;;;;16.52;12.48;;;;;;;3.81;100.00;100947.56;5067153;28;20036;-77
2024/03/07 06:15:38;;;;;;;10.88;10.25;;;;;;;3.87;100.00;100956.41;5068960;28;20630;-83
2024/03/07 06:18:04;;;;;;;3.20;2.25;;;;;;;4.05;100.00;100949.28;5056319;28;20039;-82
2024/03/07 06:20:29;;;;;;;2.17;2.08;;;;;;;4.20;100.00;100915.16;5059977;28;20036;-76
2024/03/07 06:22:57;;;;;;;0.45;0.45;;;;;;;3.41;100.00;100924.47;5059096;28;20528;-76
2024/03/07 06:25:45;;;;;;;1.35;1.27;;;;;;;3.65;100.00;100955.63;5064308;28;20040;-75
2024/03/07 06:28:11;;;;;;;4.03;3.83;;;;;;;3.62;100.00;100919.19;5055555;28;20055;-76
2024/03/07 06:30:45;;;;;;;0.55;0.55;;;;;;;4.09;100.00;100966.72;5060187;28;20044;-75
2024/03/07 06:33:11;;;;;;;0.38;0.38;;;;;;;3.82;100.00;100956.25;5078511;28;20128;-75
2024/03/07 06:35:38;;;;;;;3.42;3.22;;;;;;;3.87;100.00;100949.50;5067805;28;20039;-73
2024/03/07 06:38:09;;;;;;;0.95;0.95;;;;;;;3.52;100.00;100936.13;5067739;28;20140;-80
2024/03/07 06:40:40;;;;;;;0.43;0.43;;;;;;;3.82;100.00;100961.44;5065736;28;20045;-78
2024/03/07 06:43:06;;;;;;;1.38;1.38;;;;;;;4.29;100.00;100963.94;5054636;28;20507;-76
2024/03/07 06:45:38;;;;;;;0.93;0.93;;;;;;;4.13;100.00;100972.91;5061892;28;20140;-74
2024/03/07 06:48:06;;;;;;;16.98;15.77;;;;;;;3.53;100.00;100937.00;5065974;28;20471;-80
2024/03/07 06:50:32;;;;;;;4.72;4.43;;;;;;;4.19;100.00;100962.72;5059723;28;20128;-77
2024/03/07 06:52:58;;;;;;;7.32;3.55;;;;;;;3.82;100.00;100958.84;5061580;28;20078;-76
2024/03/07 06:55:23;;;;;;;3.35;3.13;;;;;;;3.91;100.00;100971.25;5061630;28;20094;-74
2024/03/07 06:57:49;;;;;;;7.40;6.88;;;;;;;3.77;100.00;100973.38;5061417;28;20032;-75
2024/03/07 07:00:21;;;;;;;1.60;1.50;;;;;;;3.50;100.00;100961.13;5059628;28;20048;-78
2024/03/07 07:02:49;;;;;;;7.53;7.13;;;;;;;3.36;100.00;100957.13;5061264;28;20142;-77
2024/03/07 07:05:15;;;;;;;1.30;1.25;;;;;;;3.41;100.00;100978.06;5060779;28;20044;-78
2024/03/07 07:08:04;;;;;;;2.70;2.60;;;;;;;3.67;100.00;100992.88;5085012;28;20170;-74
2024/03/07 07:10:30;;;;;;;1.00;0.95;;;;;;;3.86;100.00;100990.97;5058697;28;20040;-75
2024/03/07 07:12:55;;;;;;;0.40;0.40;;;;;;;3.86;100.00;100998.75;5063358;28;20536;-75
2024/03/07 07:15:21;;;;;;;3.83;3.70;;;;;;;4.04;100.00;100999.44;5065460;28;20044;-74
2024/03/07 07:17:48;;;;;;;5.22;5.03;;;;;;;3.76;100.00;100998.41;5061452;28;20090;-74
2024/03/07 07:20:17;;;;;;;2.65;2.50;;;;;;;4.08;100.00;100962.38;5068914;28;20148;-77
2024/03/07 07:22:49;;;;;;;1.20;1.20;;;;;;;3.71;100.00;101006.88;5058830;28;20755;-78
2024/03/07 07:25:16;;;;;;;0.98;0.98;;;;;;;3.75;100.00;101013.97;5059941;28;20087;-76
2024/03/07 07:27:49;;;;;;;0.35;0.35;;;;;;;4.16;100.00;100999.84;5067370;28;20381;-79
2024/03/07 07:30:17;;;;;;;;;;;;;;;3.99;100.00;101012.25;5067609;28;20778;-79
2024/03/07 07:32:43;;;;;;;8.88;8.07;;;;;;;4.11;100.00;100965.06;5065373;28;19916;-79
2024/03/07 07:35:13;;;;;;;2.35;2.25;;;;;;;4.26;100.00;100998.50;5061101;28;20048;-78
2024/03/07 07:37:39;;;;;;;0.68;0.68;;;;;;;4.41;100.00;100972.16;5066520;28;20144;-76
2024/03/07 07:40:08;;;;;;;1.77;1.67;;;;;;;4.91;100.00;101011.91;5057860;28;20041;-75
2024/03/07 07:42:38;;;;;;;1.05;1.05;;;;;;;4.49;100.00;100975.00;5064476;28;20058;-82
2024/03/07 07:45:13;;;;;;;0.75;0.65;;;;;;;4.95;100.00;101005.13;5068843;28;20503;-79
2024/03/07 07:47:44;;;;;;;0.63;0.63;;;;;;;5.18;100.00;101016.25;5065093;28;20029;-78
2024/03/07 07:50:13;;;;;;;4.32;4.03;;;;;;;4.71;100.00;100989.63;5061267;28;20067;-80
2024/03/07 07:52:57;;;;;;;1.83;1.70;;;;;;;4.89;100.00;100965.91;5064311;28;20048;-76
2024/03/07 07:55:25;;;;;;;3.42;3.22;;;;;;;4.89;100.00;100992.78;5066333;28;20079;-77
2024/03/07 07:57:53;;;;;;;0.75;0.75;;;;;;;5.11;100.00;101007.38;5069461;28;20793;-75
2024/03/07 08:00:21;;;;;;;3.40;3.22;;;;;;;5.05;100.00;100963.84;5062455;28;20131;-75
2024/03/07 08:02:58;;;;;;;0.93;0.93;;;;;;;4.79;100.00;101008.94;5062255;28;20036;-78
2024/03/07 08:05:29;;;;;;;0.88;0.88;;;;;;;5.36;100.00;101009.03;5067975;28;20376;-76
2024/03/07 08:07:57;;;;;;;19.02;9.98;;;;;;;5.45;100.00;101003.22;5061992;28;20056;-80
2024/03/07 08:10:30;;;;;;;0.32;0.32;;;;;;;5.58;100.00;100992.34;5049645;28;20075;-75
2024/03/07 08:13:00;;;;;;;0.80;0.80;;;;;;;5.81;100.00;101006.03;5065630;28;20584;-75
2024/03/07 08:15:28;;;;;;;7.57;7.18;;;;;;;5.68;100.00;100960.50;5059776;28;20079;-74
2024/03/07 08:17:55;;;;;;;0.38;0.38;;;;;;;5.64;100.00;100997.72;5065681;28;20060;-78
2024/03/07 08:20:22;;;;;;;2.95;2.85;;;;;;;6.20;100.00;101002.78;5066870;28;20459;-74
2024/03/07 08:22:52;;;;;;;1.67;1.58;;;;;;;6.25;100.00;100992.50;5061729;28;20047;-76
2024/03/07 08:25:25;;;;;;;1.42;1.33;;;;;;;6.12;100.00;100993.91;5065691;28;20401;-75
2024/03/07 08:27:52;;;;;;;0.88;0.85;;;;;;;5.56;100.00;100974.91;5057518;28;20177;-77
2024/03/07 08:30:18;;;;;;;1.60;1.50;;;;;;;6.05;100.00;100958.09;5058734;28;20032;-75
2024/03/07 08:32:49;;;;;;;0.60;0.60;;;;;;;5.85;100.00;100957.50;5063801;28;20028;-79
2024/03/07 08:35:16;;;;;;;1.23;1.20;;;;;;;5.92;100.00;100955.13;5064242;28;20048;-77
2024/03/07 08:37:46;;;;;;;0.77;0.77;;;;;;;6.60;100.00;100988.19;5067261;28;20127;-78
2024/03/07 08:40:19;;;;;;;2.60;2.47;;;;;;;7.02;100.00;100984.88;5067625;28;20845;-77
2024/03/07 08:42:51;;;;;;;5.82;2.70;;;;;;;7.15;100.00;100997.38;5068456;28;20050;-77
2024/03/07 08:45:21;;;;;;;0.60;0.60;;;;;;;7.04;100.00;100982.31;5068751;28;20380;-79
2024/03/07 08:47:49;;;;;;;0.95;0.95;;;;;;;7.02;100.00;100969.22;5063153;28;20029;-75
2024/03/07 08:50:17;;;;;;;2.05;1.95;;;;;;;6.52;100.00;100956.72;5065523;28;20041;-79
2024/03/07 08:52:44;;;;;;;1.13;1.05;;;;;;;7.40;100.00;100985.78;5064254;28;20057;-76
2024/03/07 08:55:12;;;;;;;2.25;2.15;;;;;;;7.43;100.00;100952.75;5063533;28;20049;-76
2024/03/07 08:57:41;;;;;;;0.90;0.88;;;;;;;7.28;100.00;100943.75;5056780;28;20052;-76
2024/03/07 09:00:09;;;;;;;0.20;0.20;;;;;;;7.51;100.00;100980.75;5062866;28;20032;-75
2024/03/07 09:02:35;;;;;;;0.95;0.95;;;;;;;6.80;100.00;100973.06;5053115;28;20128;-77
2024/03/07 09:05:02;;;;;;;0.63;0.63;;;;;;;7.09;100.00;100981.56;5062682;28;20067;-79
2024/03/07 09:07:29;;;;;;;0.40;0.40;;;;;;;7.06;100.00;100944.09;5065254;28;20464;-77
2024/03/07 09:09:55;;;;;;;0.52;0.52;;;;;;;7.14;100.00;100943.44;5062265;28;20055;-78
2024/03/07 09:12:20;;;;;;;21.98;13.35;;;;;;;7.15;100.00;100978.22;5065911;28;20036;-77
2024/03/07 09:14:46;;;;;;;4.13;2.58;;;;;;;7.75;100.00;100948.16;5059377;28;20036;-77
2024/03/07 09:17:12;;;;;;;0.40;0.40;;;;;;;7.96;100.00;100979.06;5061792;28;20897;-77
2024/03/07 09:19:37;;;;;;;0.43;0.43;;;;;;;7.01;100.00;100961.38;5056782;28;20052;-75
2024/03/07 09:22:04;;;;;;;0.40;0.40;;;;;;;6.78;100.00;100969.53;5066038;28;20048;-77
2024/03/07 09:24:31;;;;;;;0.68;0.68;;;;;;;6.96;100.00;100985.63;5059445;28;20041;-76
2024/03/07 09:26:57;;;;;;;4.82;2.63;;;;;;;7.18;100.00;100978.28;5062336;28;20059;-79
2024/03/07 09:29:23;;;;;;;28.35;17.08;;;;;;;7.44;100.00;100970.16;5065785;28;20077;-82
2024/03/07 09:31:53;;;;;;;0.40;0.40;;;;;;;7.58;100.00;100972.22;5059573;28;20061;-75
2024/03/07 09:34:20;;;;;;;1.98;1.30;;;;;;;7.62;100.00;100973.16;5057781;28;20123;-75
2024/03/07 09:36:46;;;;;;;2.53;2.33;;;;;;;7.44;100.00;100972.78;5054053;28;20111;-76
2024/03/07 09:39:15;;;;;;;0.30;0.30;;;;;;;7.49;100.00;100966.81;5043430;28;20064;-75
2024/03/07 09:41:41;;;;;;;1.95;1.85;;;;;;;7.49;100.00;100956.38;5063566;28;20044;-77
2024/03/07 09:44:25;;;;;;;0.75;0.75;;;;;;;7.59;100.00;100978.34;5065425;28;20131;-75
2024/03/07 09:46:54;;;;;;;1.05;0.75;;;;;;;8.17;100.00;100978.59;5058867;28;20099;-78
2024/03/07 09:49:20;;;;;;;3.28;3.13;;;;;;;7.88;100.00;100941.47;5062019;28;20095;-74
2024/03/07 09:51:54;;;;;;;3.78;3.55;;;;;;;7.43;100.00;100943.19;5061126;28;20434;-78
2024/03/07 09:54:26;;;;;;;19.38;9.02;;;;;;;8.38;100.00;100972.88;5068117;28;20099;-75
2024/03/07 09:56:55;;;;;;;0.47;0.47;;;;;;;7.56;100.00;100939.09;5065486;28;20465;-73
2024/03/07 09:59:28;;;;;;;0.45;0.40;;;;;;;7.52;100.00;100966.88;5060269;28;20497;-79
2024/03/07 10:01:55;;;;;;;18.27;13.95;;;;;;;8.12;100.00;100975.91;5061543;28;20124;-76
2024/03/07 10:04:31;;;;;;;3.17;2.97;;;;;;;8.35;100.00;100942.34;5057612;28;20075;-75
2024/03/07 10:06:56;;;;;;;0.50;0.50;;;;;;;7.99;100.00;100927.75;5061239;28;20087;-78
2024/03/07 10:09:23;;;;;;;0.60;0.60;;;;;;;7.92;100.00;100969.44;5057871;28;20076;-78
2024/03/07 10:11:58;;;;;;;1.85;1.75;;;;;;;8.61;100.00;100960.25;5061938;28;20032;-76
2024/03/07 10:14:25;;;;;;;0.70;0.70;;;;;;;8.96;100.00;100952.09;5056056;28;20052;-77
2024/03/07 10:16:54;;;;;;;1.13;1.02;;;;;;;8.60;100.00;100955.88;5062924;28;20423;-74
2024/03/07 10:19:19;;;;;;;1.50;1.05;;;;;;;8.62;100.00;100926.28;5058784;28;20052;-80
2024/03/07 10:21:45;;;;;;;0.30;0.30;;;;;;;8.85;100.00;100913.56;5061385;28;20450;-78
2024/03/07 10:24:11;;;;;;;8.20;6.20;;;;;;;8.43;100.00;100950.38;5055603;28;20635;-74
2024/03/07 10:26:40;;;;;;;0.50;0.50;;;;;;;8.13;100.00;100914.94;5063617;28;20448;-76
2024/03/07 10:29:07;;;;;;;0.45;0.45;;;;;;;8.85;100.00;100917.94;5053263;28;20143;-76
2024/03/07 10:31:34;;;;;;;1.08;1.02;;;;;;;9.29;100.00;100942.13;5062353;28;20045;-75
2024/03/07 10:34:04;;;;;;;1.10;1.10;;;;;;;9.34;100.00;100929.09;5064963;28;20487;-78
2024/03/07 10:36:33;;;;;;;4.10;3.92;;;;;;;9.65;100.00;100951.31;5062675;28;20059;-77
2024/03/07 10:39:04;;;;;;;0.60;0.60;;;;;;;9.27;100.00;100924.59;5078299;28;20075;-75
2024/03/07 10:41:36;;;;;;;0.47;0.47;;;;;;;9.47;100.00;100917.91;5060805;28;20037;-75
2024/03/07 10:44:04;;;;;;;1.23;1.17;;;;;;;9.83;100.00;100949.75;5061425;28;20094;-79
2024/03/07 10:46:31;;;;;;;4.72;4.13;;;;;;;10.24;100.00;100934.47;5058706;28;20081;-78
2024/03/07 10:49:07;;;;;;;0.77;0.77;;;;;;;10.10;100.00;100910.75;5056864;28;20068;-78
2024/03/07 10:51:45;;;;;;;1.15;1.15;;;;;;;9.19;100.00;100921.00;5065170;28;20098;-80
2024/03/07 10:54:30;;;;;;;13.50;4.28;;;;;;;9.13;100.00;100949.72;5064574;28;20059;-75
2024/03/07 10:57:14;;;;;;;5.35;4.05;;;;;;;9.58;100.00;100930.28;5059588;28;20559;-74
2024/03/07 10:59:47;;;;;;;1.17;1.17;;;;;;;10.05;100.00;100920.31;5059886;28;20032;-77
2024/03/07 11:02:41;;;;;;;0.32;0.32;;;;;;;8.67;100.00;100931.59;5081766;28;20048;-75
2024/03/07 11:05:12;;;;;;;0.40;0.40;;;;;;;10.28;100.00;100927.53;5064832;28;20680;-75
2024/03/07 11:07:38;;;;;;;0.20;0.20;;;;;;;9.91;100.00;100937.63;5058885;28;20047;-77
2024/03/07 11:10:11;;;;;;;0.45;0.45;;;;;;;10.07;100.00;100933.44;5058424;28;20044;-80
2024/03/07 11:12:39;;;;;;;;;;;;;;;10.79;100.00;100941.97;5058932;28;20127;-75
2024/03/07 11:15:14;;;;;;;6.95;6.55;;;;;;;10.53;100.00;100926.91;5065529;28;20045;-81
2024/03/07 11:17:43;;;;;;;10.52;3.72;;;;;;;10.66;100.00;100906.03;5056938;28;20071;-75
2024/03/07 11:20:20;;;;;;;6.53;3.17;;;;;;;9.76;100.00;100930.47;5065158;28;20504;-77
2024/03/07 11:22:46;;;;;;;1.75;1.65;;;;;;;10.65;100.00;100933.13;5066075;28;20044;-76
2024/03/07 11:25:12;;;;;;;0.40;0.40;;;;;;;10.85;100.00;100926.28;5059937;28;20122;-75
2024/03/07 11:27:42;;;;;;;1.50;1.40;;;;;;;9.17;100.00;100926.22;5059423;28;20481;-75
2024/03/07 11:30:09;;;;;;;15.85;14.70;;;;;;;10.02;100.00;100908.91;5061254;28;20111;-74